createdAt,value
2022-09-19T00:01:45.816Z,9.30
2022-09-19T00:04:33.004Z,7.20
2022-09-19T00:07:14.888Z,7.30
2022-09-19T00:09:56.784Z,10.80
2022-09-19T00:12:39.092Z,7.50
2022-09-19T00:15:23.457Z,7.90
2022-09-19T00:18:05.440Z,9.30
2022-09-19T00:20:49.282Z,8.70
2022-09-19T00:23:50.024Z,5.90
2022-09-19T00:26:32.019Z,10.00
2022-09-19T00:29:16.465Z,9.50
2022-09-19T00:31:58.370Z,11.50
2022-09-19T00:34:51.639Z,9.00
2022-09-19T00:37:33.424Z,17.00
2022-09-19T00:40:16.359Z,10.80
2022-09-19T00:42:58.854Z,11.50
2022-09-19T00:45:40.915Z,9.20
2022-09-19T00:48:23.976Z,11.20
2022-09-19T00:51:06.283Z,9.60
2022-09-19T00:53:49.510Z,9.80
2022-09-19T00:56:32.960Z,7.70
2022-09-19T00:59:15.949Z,5.70
2022-09-19T01:01:58.984Z,6.90
2022-09-19T01:04:43.102Z,7.80
2022-09-19T01:07:30.536Z,6.40
2022-09-19T01:10:30.988Z,10.80
2022-09-19T01:16:21.977Z,5.10
2022-09-19T01:19:43.033Z,8.10
2022-09-19T01:22:44.894Z,6.00
2022-09-19T01:25:33.266Z,6.40
2022-09-19T01:28:22.177Z,8.20
2022-09-19T01:31:28.353Z,7.30
2022-09-19T01:34:20.298Z,6.50
2022-09-19T01:37:10.898Z,8.70
2022-09-19T01:39:52.999Z,9.00
2022-09-19T01:42:35.099Z,6.40
2022-09-19T01:45:16.995Z,8.60
2022-09-19T01:48:23.877Z,7.50
2022-09-19T01:51:35.061Z,5.10
2022-09-19T01:54:44.397Z,6.20
2022-09-19T01:57:41.756Z,8.90
2022-09-19T02:00:25.939Z,7.30
2022-09-19T02:03:30.841Z,7.50
2022-09-19T02:06:23.386Z,8.00
2022-09-19T02:09:38.258Z,12.00
2022-09-19T02:12:24.067Z,8.10
2022-09-19T02:15:12.163Z,8.70
2022-09-19T02:17:58.177Z,11.20
2022-09-19T02:20:46.286Z,14.60
2022-09-19T02:23:31.899Z,16.90
2022-09-19T02:26:21.478Z,12.70
2022-09-19T02:29:06.518Z,13.10
2022-09-19T02:31:48.720Z,16.70
2022-09-19T02:34:31.713Z,16.80
2022-09-19T02:37:39.179Z,15.70
2022-09-19T02:40:37.291Z,14.60
2022-09-19T02:43:41.812Z,19.20
2022-09-19T02:46:34.419Z,20.40
2022-09-19T02:49:32.283Z,22.10
2022-09-19T02:52:20.324Z,18.70
2022-09-19T02:55:14.508Z,18.70
2022-09-19T02:58:05.193Z,19.10
2022-09-19T03:00:53.735Z,24.40
2022-09-19T03:06:45.873Z,21.20
2022-09-19T03:09:32.115Z,21.20
2022-09-19T03:12:24.249Z,19.90
2022-09-19T03:15:08.646Z,19.30
2022-09-19T03:17:54.667Z,19.80
2022-09-19T03:21:00.520Z,24.10
2022-09-19T03:23:47.716Z,20.40
2022-09-19T03:26:37.325Z,19.20
2022-09-19T03:29:19.479Z,20.30
2022-09-19T03:32:07.490Z,21.40
2022-09-19T03:34:49.590Z,20.40
2022-09-19T03:37:33.739Z,24.30
2022-09-19T03:40:16.327Z,19.00
2022-09-19T03:42:58.349Z,21.40
2022-09-19T03:45:40.978Z,19.90
2022-09-19T03:48:23.882Z,24.80
2022-09-19T03:51:06.289Z,52.80
2022-09-19T03:53:48.697Z,24.80
2022-09-19T03:56:31.821Z,25.50
2022-09-19T03:59:13.717Z,51.60
2022-09-19T04:01:56.790Z,27.50
2022-09-19T04:04:41.195Z,26.50
2022-09-19T04:07:23.807Z,21.50
2022-09-19T04:10:07.698Z,25.90
2022-09-19T04:12:50.057Z,36.40
2022-09-19T04:15:32.464Z,56.20
2022-09-19T04:18:18.662Z,50.70
2022-09-19T04:21:00.885Z,30.80
2022-09-19T04:24:00.782Z,34.70
2022-09-19T04:27:17.568Z,31.50
2022-09-19T04:30:02.361Z,21.30
2022-09-19T04:32:45.768Z,21.00
2022-09-19T04:35:28.506Z,24.30
2022-09-19T04:38:14.613Z,21.50
2022-09-19T04:40:58.050Z,25.00
2022-09-19T04:43:41.772Z,20.30
2022-09-19T04:46:30.117Z,19.80
2022-09-19T04:49:18.250Z,21.90
2022-09-19T04:52:00.058Z,27.40
2022-09-19T04:54:42.870Z,31.20
2022-09-19T04:57:28.248Z,31.80
2022-09-19T05:00:13.830Z,29.00
2022-09-19T05:03:00.436Z,24.90
2022-09-19T05:05:51.794Z,23.30
2022-09-19T05:08:42.148Z,27.20
2022-09-19T05:11:30.233Z,23.80
2022-09-19T05:14:15.152Z,23.20
2022-09-19T05:17:04.599Z,25.90
2022-09-19T05:19:47.138Z,28.50
2022-09-19T05:22:30.776Z,32.40
2022-09-19T05:25:16.561Z,29.60
2022-09-19T05:27:58.766Z,24.60
2022-09-19T05:30:48.770Z,59.70
2022-09-19T05:33:34.230Z,77.70
2022-09-19T05:36:16.329Z,136.60
2022-09-19T05:39:12.168Z,128.90
2022-09-19T05:42:14.437Z,39.20
2022-09-19T05:44:56.526Z,28.70
2022-09-19T05:47:40.574Z,29.10
2022-09-19T05:50:23.697Z,27.60
2022-09-19T05:53:24.230Z,31.20
2022-09-19T05:56:10.477Z,27.40
2022-09-19T05:58:59.694Z,26.30
2022-09-19T06:01:42.683Z,26.30
2022-09-19T06:04:28.810Z,31.50
2022-09-19T06:07:10.706Z,28.90
2022-09-19T06:09:54.344Z,29.20
2022-09-19T06:12:38.798Z,26.20
2022-09-19T06:15:21.206Z,29.90
2022-09-19T06:18:03.209Z,28.00
2022-09-19T06:20:57.493Z,23.70
2022-09-19T06:23:45.734Z,27.30
2022-09-19T06:26:28.757Z,27.70
2022-09-19T06:29:11.776Z,29.60
2022-09-19T06:31:57.082Z,26.70
2022-09-19T06:34:57.750Z,23.20
2022-09-19T06:37:43.068Z,27.50
2022-09-19T06:40:26.244Z,22.60
2022-09-19T06:43:28.673Z,26.40
2022-09-19T06:46:35.141Z,21.00
2022-09-19T06:49:24.000Z,19.80
2022-09-19T06:52:16.955Z,23.20
2022-09-19T07:20:55.642Z,16.30
2022-09-19T07:23:49.165Z,18.40
2022-09-19T07:26:54.100Z,14.20
2022-09-19T07:29:37.225Z,17.00
2022-09-19T07:32:20.044Z,17.40
2022-09-19T07:35:02.246Z,19.70
2022-09-19T07:37:49.976Z,17.50
2022-09-19T07:40:48.600Z,18.10
2022-09-19T07:43:41.009Z,16.80
2022-09-19T07:47:08.418Z,20.50
2022-09-19T07:50:19.859Z,17.80
2022-09-19T07:53:25.309Z,16.50
2022-09-19T07:56:07.713Z,15.30
2022-09-19T07:58:50.736Z,15.20
2022-09-19T08:01:32.686Z,17.00
2022-09-19T08:04:31.731Z,13.50
2022-09-19T08:07:16.390Z,15.20
2022-09-19T08:09:59.903Z,14.60
2022-09-19T08:12:46.101Z,16.00
2022-09-19T08:15:28.630Z,15.30
2022-09-19T08:18:16.168Z,18.30
2022-09-19T08:20:58.056Z,21.00
2022-09-19T08:23:42.303Z,20.10
2022-09-19T08:26:26.456Z,21.60
2022-09-19T08:29:08.352Z,20.40
2022-09-19T08:31:57.692Z,24.00
2022-09-19T08:34:40.844Z,21.00
2022-09-19T08:37:22.945Z,19.10
2022-09-19T08:40:17.735Z,22.50
2022-09-19T08:43:18.890Z,16.90
2022-09-19T08:46:14.134Z,18.00
2022-09-19T08:49:02.845Z,15.20
2022-09-19T08:52:07.585Z,13.90
2022-09-19T08:54:53.730Z,14.70
2022-09-19T08:57:49.823Z,14.60
2022-09-19T09:00:38.446Z,16.50
2022-09-19T09:03:32.772Z,16.00
2022-09-19T09:06:53.455Z,14.40
2022-09-19T09:10:03.109Z,11.80
2022-09-19T09:13:11.010Z,12.10
2022-09-19T09:16:20.668Z,14.20
2022-09-19T09:19:26.141Z,14.90
2022-09-19T09:22:27.186Z,11.70
2022-09-19T09:25:34.272Z,12.40
2022-09-19T09:28:29.315Z,11.50
2022-09-19T09:31:26.590Z,14.90
2022-09-19T09:34:23.929Z,10.00
2022-09-19T09:37:22.210Z,12.80
2022-09-19T09:40:41.016Z,13.00
2022-09-19T09:43:31.917Z,12.80
2022-09-19T09:46:24.189Z,12.90
2022-09-19T09:49:13.877Z,14.70
2022-09-19T09:52:28.696Z,10.20
2022-09-19T09:56:07.731Z,13.20
2022-09-19T09:59:38.702Z,11.30
2022-09-19T10:16:43.882Z,10.20
2022-09-19T10:19:45.994Z,11.40
2022-09-19T10:22:28.095Z,18.80
2022-09-19T10:25:17.577Z,31.90
2022-09-19T10:28:16.878Z,50.40
2022-09-19T10:31:35.949Z,75.70
2022-09-19T10:34:44.049Z,36.70
2022-09-19T10:37:35.368Z,18.60
2022-09-19T10:40:18.571Z,12.70
2022-09-19T10:43:02.886Z,10.60
2022-09-19T10:45:48.415Z,10.60
2022-09-19T10:48:33.165Z,13.60
2022-09-19T10:51:15.333Z,19.80
2022-09-19T10:53:58.761Z,21.40
2022-09-19T10:56:42.103Z,28.00
2022-09-19T10:59:39.834Z,31.40
2022-09-19T11:02:30.568Z,19.50
2022-09-19T11:05:25.195Z,14.50
2022-09-19T11:08:24.866Z,14.70
2022-09-19T11:11:20.998Z,18.70
2022-09-19T11:14:27.673Z,12.70
2022-09-19T11:17:41.142Z,21.10
2022-09-19T11:20:32.434Z,72.40
2022-09-19T11:23:44.631Z,24.10
2022-09-19T11:26:45.777Z,17.20
2022-09-19T11:29:53.637Z,24.00
2022-09-19T11:32:55.717Z,14.90
2022-09-19T11:36:14.544Z,13.50
2022-09-19T11:42:45.679Z,15.10
2022-09-19T11:45:41.947Z,15.70
2022-09-19T11:49:01.401Z,11.80
2022-09-19T11:51:51.210Z,11.80
2022-09-19T11:54:51.640Z,13.20
2022-09-19T11:57:45.670Z,17.70
2022-09-19T12:00:30.197Z,15.30
2022-09-19T12:04:02.883Z,30.70
2022-09-19T12:07:13.847Z,19.10
2022-09-19T12:10:13.350Z,62.60
2022-09-19T12:13:05.485Z,44.40
2022-09-19T12:16:05.441Z,15.10
2022-09-19T12:18:56.414Z,11.00
2022-09-19T12:21:47.013Z,15.40
2022-09-19T12:24:53.802Z,12.50
2022-09-19T12:27:50.642Z,16.10
2022-09-19T12:30:42.262Z,15.70
2022-09-19T12:33:36.446Z,12.50
2022-09-19T12:36:47.324Z,8.90
2022-09-19T12:39:41.607Z,9.00
2022-09-19T12:42:34.258Z,8.90
2022-09-19T12:45:24.240Z,8.30
2022-09-19T12:48:24.571Z,10.20
2022-09-19T12:51:40.462Z,10.70
2022-09-19T12:54:38.130Z,9.00
2022-09-19T12:57:37.742Z,7.40
2022-09-19T13:00:22.094Z,10.70
2022-09-19T13:03:15.056Z,8.50
2022-09-19T13:06:10.049Z,7.90
2022-09-19T13:09:10.993Z,9.40
2022-09-19T13:12:01.903Z,8.20
2022-09-19T13:14:58.646Z,8.40
2022-09-19T13:18:01.839Z,9.70
2022-09-19T13:21:04.827Z,20.40
2022-09-19T13:23:53.809Z,10.10
2022-09-19T13:26:37.936Z,7.70
2022-09-19T13:29:19.653Z,6.90
2022-09-19T13:32:08.962Z,8.20
2022-09-19T13:35:16.189Z,6.90
2022-09-19T13:38:02.622Z,9.20
2022-09-19T13:40:56.056Z,7.20
2022-09-19T13:44:14.305Z,8.10
2022-09-19T13:47:08.501Z,7.60
2022-09-19T13:50:05.851Z,8.20
2022-09-19T13:53:02.714Z,6.80
2022-09-19T13:56:00.645Z,6.60
2022-09-19T13:58:43.712Z,5.70
2022-09-19T14:01:37.699Z,8.80
2022-09-19T14:04:38.405Z,10.10
2022-09-19T14:10:44.180Z,19.30
2022-09-19T14:13:35.599Z,8.60
2022-09-19T14:16:38.663Z,7.20
2022-09-19T14:19:50.080Z,6.80
2022-09-19T14:22:41.235Z,7.80
2022-09-19T14:25:28.210Z,4.90
2022-09-19T14:28:40.412Z,7.00
2022-09-19T14:31:57.623Z,7.30
2022-09-19T14:34:51.001Z,7.50
2022-09-19T14:37:51.739Z,6.50
2022-09-19T14:40:49.253Z,5.50
2022-09-19T14:44:07.215Z,9.80
2022-09-19T14:47:10.445Z,9.90
2022-09-19T14:50:08.821Z,3.60
2022-09-19T14:53:21.596Z,3.20
2022-09-19T14:56:12.752Z,2.50
2022-09-19T14:58:54.553Z,4.30
2022-09-19T15:01:41.449Z,8.90
2022-09-19T15:04:26.117Z,7.70
2022-09-19T15:07:11.089Z,9.60
2022-09-19T15:09:53.189Z,7.90
2022-09-19T15:12:37.037Z,9.30
2022-09-19T15:15:20.360Z,10.20
2022-09-19T15:18:02.362Z,8.30
2022-09-19T15:20:44.254Z,9.10
2022-09-19T15:23:29.079Z,10.40
2022-09-19T15:26:16.237Z,9.50
2022-09-19T15:29:08.464Z,12.50
2022-09-19T15:31:52.409Z,12.90
2022-09-19T15:34:35.839Z,13.00
2022-09-19T15:37:20.819Z,9.80
2022-09-19T15:40:03.200Z,11.80
2022-09-19T15:42:46.763Z,10.20
2022-09-19T15:45:31.376Z,9.30
2022-09-19T15:48:33.142Z,10.20
2022-09-19T15:51:29.210Z,11.30
2022-09-19T15:54:20.427Z,10.20
2022-09-19T15:57:33.757Z,12.30
2022-09-19T16:00:19.242Z,8.80
2022-09-19T16:03:06.430Z,7.90
2022-09-19T16:06:24.893Z,8.00
2022-09-19T16:09:08.752Z,6.10
2022-09-19T16:11:50.854Z,5.60
2022-09-19T16:14:42.316Z,6.30
2022-09-19T16:17:27.330Z,6.70
2022-09-19T16:20:32.076Z,7.50
2022-09-19T16:23:21.257Z,7.00
2022-09-19T16:26:03.649Z,7.60
2022-09-19T16:28:54.544Z,12.30
2022-09-19T16:31:40.463Z,17.90
2022-09-19T16:34:34.220Z,19.90
2022-09-19T16:37:27.222Z,24.10
2022-09-19T16:40:27.817Z,32.80
2022-09-19T16:43:59.162Z,44.90
2022-09-19T16:46:41.981Z,38.30
2022-09-19T16:49:24.079Z,29.80
2022-09-19T16:52:06.596Z,29.90
2022-09-19T16:54:49.210Z,54.70
2022-09-19T16:57:31.714Z,49.70
2022-09-19T17:00:14.838Z,70.50
2022-09-19T17:02:56.733Z,75.80
2022-09-19T17:05:39.449Z,85.50
2022-09-19T17:08:21.345Z,78.70
2022-09-19T17:11:03.358Z,41.80
2022-09-19T17:13:45.854Z,25.70
2022-09-19T17:16:27.795Z,25.30
2022-09-19T17:19:10.362Z,25.30
2022-09-19T17:21:52.403Z,28.60
2022-09-19T17:24:34.462Z,31.00
2022-09-19T17:27:17.896Z,53.60
2022-09-19T17:30:00.402Z,51.30
2022-09-19T17:32:50.900Z,37.80
2022-09-19T17:38:15.305Z,59.20
2022-09-19T17:40:59.105Z,56.60
2022-09-19T17:43:45.370Z,64.70
2022-09-19T17:46:27.488Z,87.80
2022-09-19T17:49:10.055Z,86.50
2022-09-19T17:51:52.169Z,61.40
2022-09-19T17:54:34.268Z,64.70
2022-09-19T17:57:17.800Z,69.20
2022-09-19T18:00:01.358Z,56.20
2022-09-19T18:03:03.627Z,64.60
2022-09-19T18:05:59.430Z,51.20
2022-09-19T18:08:41.633Z,38.10
2022-09-19T18:11:25.467Z,58.00
2022-09-19T18:14:07.976Z,61.80
2022-09-19T18:16:50.700Z,62.00
2022-09-19T18:19:33.788Z,72.10
2022-09-19T18:22:15.660Z,64.50
2022-09-19T18:24:58.476Z,64.40
2022-09-19T18:27:40.907Z,58.40
2022-09-19T18:30:24.342Z,54.50
2022-09-19T18:33:07.186Z,40.90
2022-09-19T18:35:50.564Z,32.50
2022-09-19T18:38:37.835Z,35.40
2022-09-19T18:41:21.422Z,31.00
2022-09-19T18:44:03.671Z,21.30
2022-09-19T18:46:46.964Z,20.00
2022-09-19T18:49:30.224Z,14.40
2022-09-19T18:52:12.179Z,14.70
2022-09-19T18:54:55.108Z,17.20
2022-09-19T18:57:37.506Z,15.60
2022-09-19T19:00:20.018Z,63.50
2022-09-19T19:03:02.339Z,36.80
2022-09-19T19:05:48.646Z,21.10
2022-09-19T19:08:34.399Z,22.90
2022-09-19T19:11:20.788Z,17.90
2022-09-19T19:14:04.692Z,22.00
2022-09-19T19:16:47.883Z,15.40
2022-09-19T19:19:32.091Z,12.60
2022-09-19T19:22:14.984Z,27.00
2022-09-19T19:24:57.947Z,19.10
2022-09-19T19:27:39.763Z,18.10
2022-09-19T19:30:23.850Z,20.10
2022-09-19T19:33:09.287Z,27.00
2022-09-19T19:36:04.548Z,17.60
2022-09-19T19:38:49.373Z,20.00
2022-09-19T19:41:31.769Z,22.20
2022-09-19T19:44:14.211Z,20.90
2022-09-19T19:46:56.071Z,22.60
2022-09-19T19:49:37.867Z,19.90
2022-09-19T19:52:19.761Z,13.60
2022-09-19T19:55:01.657Z,12.20
2022-09-19T19:57:45.005Z,11.30
2022-09-19T20:00:29.181Z,9.40
2022-09-19T20:03:11.032Z,11.20
2022-09-19T20:05:53.438Z,11.30
2022-09-19T20:08:39.492Z,8.70
2022-09-19T20:11:21.920Z,10.10
2022-09-19T20:14:06.399Z,10.90
2022-09-19T20:16:49.161Z,13.10
2022-09-19T20:19:31.417Z,12.00
2022-09-19T20:22:13.210Z,13.90
2022-09-19T20:24:55.312Z,10.90
2022-09-19T20:27:38.129Z,13.00
2022-09-19T20:30:21.254Z,9.80
2022-09-19T20:33:03.661Z,10.70
2022-09-19T20:35:48.526Z,9.30
2022-09-19T20:38:32.135Z,10.50
2022-09-19T20:41:14.262Z,10.90
2022-09-19T20:43:56.158Z,10.80
2022-09-19T20:46:39.303Z,11.80
2022-09-19T20:49:23.893Z,11.00
2022-09-19T20:52:06.043Z,12.30
2022-09-19T20:54:48.247Z,11.70
2022-09-19T20:57:31.576Z,11.90
2022-09-19T21:00:13.471Z,14.30
2022-09-19T21:02:55.264Z,10.90
2022-09-19T21:05:37.263Z,11.70
2022-09-19T21:08:19.569Z,9.30
2022-09-19T21:11:07.387Z,9.30
2022-09-19T21:14:03.208Z,9.20
2022-09-19T21:16:48.347Z,10.60
2022-09-19T21:19:30.397Z,9.70
2022-09-19T21:22:12.188Z,8.90
2022-09-19T21:24:54.086Z,7.80
2022-09-19T21:27:35.860Z,8.40
2022-09-19T21:30:17.753Z,10.30
2022-09-19T21:32:59.567Z,8.90
2022-09-19T21:35:41.360Z,10.40
2022-09-19T21:38:23.564Z,8.90
2022-09-19T21:41:07.508Z,8.90
2022-09-19T21:43:59.955Z,8.50
2022-09-19T21:46:41.742Z,10.10
2022-09-19T21:49:23.536Z,10.60
2022-09-19T21:52:05.330Z,8.40
2022-09-19T21:54:49.170Z,10.70
2022-09-19T21:57:31.476Z,7.20
2022-09-19T22:00:14.089Z,9.80
2022-09-19T22:02:55.884Z,10.90
2022-09-19T22:05:37.675Z,9.20
2022-09-19T22:08:19.468Z,10.90
2022-09-19T22:11:08.910Z,10.60
2022-09-19T22:13:50.736Z,8.20
2022-09-19T22:16:35.117Z,9.10
2022-09-19T22:19:17.089Z,9.00
2022-09-19T22:21:58.880Z,12.10
2022-09-19T22:24:40.699Z,10.80
2022-09-19T22:27:22.569Z,11.20
2022-09-19T22:30:05.953Z,11.70
2022-09-19T22:32:47.794Z,10.50
2022-09-19T22:35:30.305Z,10.40
2022-09-19T22:38:12.098Z,11.90
2022-09-19T22:40:53.890Z,9.50
2022-09-19T22:43:36.503Z,12.70
2022-09-19T22:46:21.410Z,10.40
2022-09-19T22:49:03.879Z,7.70
2022-09-19T22:51:46.083Z,7.10
2022-09-19T22:54:29.003Z,7.50
2022-09-19T22:57:10.794Z,9.20
2022-09-19T22:59:53.407Z,10.50
2022-09-19T23:02:35.719Z,11.70
2022-09-19T23:05:17.609Z,12.00
2022-09-19T23:07:59.402Z,12.40
2022-09-19T23:10:41.194Z,12.20
2022-09-19T23:13:49.320Z,13.40
2022-09-19T23:16:34.488Z,11.90
2022-09-19T23:19:21.702Z,11.00
2022-09-19T23:22:03.491Z,9.40
2022-09-19T23:24:45.285Z,10.80
2022-09-19T23:27:27.078Z,8.90
2022-09-19T23:30:09.589Z,7.40
2022-09-19T23:32:51.387Z,9.30
2022-09-19T23:35:33.174Z,7.10
2022-09-19T23:38:14.968Z,8.80
2022-09-19T23:41:06.890Z,7.60
2022-09-19T23:43:51.488Z,7.60
2022-09-19T23:46:34.684Z,6.80
2022-09-19T23:49:16.477Z,8.20
2022-09-19T23:51:59.296Z,10.90
2022-09-19T23:54:41.015Z,8.40
2022-09-19T23:57:22.778Z,7.40
